createdAt,value
2017-07-02T17:46:34.840Z,504
2017-07-02T17:47:36.254Z,340
2017-07-02T17:48:57.783Z,260
2017-07-02T18:08:52.342Z,624
2017-07-02T18:09:29.326Z,548
2017-07-02T18:10:44.619Z,208
2017-07-02T18:11:46.028Z,96
2017-07-02T18:14:11.694Z,168
2017-07-02T18:15:13.828Z,392
2017-07-02T18:16:50.874Z,60
2017-07-02T18:17:52.280Z,4
2017-07-02T18:19:13.813Z,4
2017-07-02T18:25:59.453Z,64
2017-07-02T18:27:00.903Z,76
2017-07-02T18:28:24.306Z,4
2017-07-02T18:29:25.785Z,4
2017-07-02T18:30:27.480Z,4
2017-07-02T18:31:28.885Z,4
2017-07-02T18:32:30.292Z,4
2017-07-02T18:33:31.702Z,4
2017-07-02T18:34:33.111Z,4
2017-07-02T18:35:34.521Z,4
2017-07-02T18:36:35.929Z,4
2017-07-02T18:37:37.336Z,4
2017-07-02T18:38:38.757Z,4
2017-07-02T18:39:40.164Z,4
2017-07-02T18:40:41.574Z,4
2017-07-02T18:41:43.462Z,4
2017-07-02T18:42:44.870Z,4
2017-07-02T18:43:46.279Z,4
2017-07-02T18:44:47.686Z,4
2017-07-02T18:45:49.101Z,4
2017-07-02T18:46:50.522Z,4
2017-07-02T18:47:51.930Z,4
2017-07-02T18:48:53.340Z,4
2017-07-02T18:49:54.755Z,4
2017-07-02T18:50:56.161Z,4
2017-07-02T18:51:58.074Z,4
2017-07-02T18:52:59.996Z,4
2017-07-02T18:54:01.405Z,4
2017-07-02T18:55:02.812Z,4
2017-07-02T18:56:04.286Z,4
2017-07-02T18:57:05.694Z,4
2017-07-02T18:58:07.126Z,4
2017-07-02T18:59:08.533Z,4
2017-07-02T19:00:09.990Z,4
2017-07-02T19:01:11.401Z,4
2017-07-02T19:02:12.807Z,4
2017-07-02T19:03:14.321Z,4
2017-07-02T19:04:15.827Z,4
2017-07-02T19:05:17.230Z,4
2017-07-02T19:06:18.637Z,4
2017-07-02T19:07:20.043Z,4
2017-07-02T19:08:21.449Z,4
2017-07-02T19:09:22.858Z,4
2017-07-02T19:10:24.268Z,4
2017-07-02T19:11:25.721Z,4
2017-07-02T19:12:27.130Z,4
2017-07-02T19:13:28.825Z,4
2017-07-02T19:14:30.234Z,4
2017-07-02T19:15:31.642Z,4
2017-07-02T19:16:33.056Z,4
2017-07-02T19:17:34.464Z,4
2017-07-02T19:18:35.874Z,4
2017-07-02T19:19:37.281Z,4
2017-07-02T19:20:38.686Z,4
2017-07-02T19:21:40.093Z,4
2017-07-02T19:22:41.499Z,4
2017-07-02T19:23:42.907Z,4
2017-07-02T19:24:44.410Z,4
2017-07-02T19:25:46.322Z,4
2017-07-02T19:26:47.729Z,4
2017-07-02T19:27:49.133Z,4
2017-07-02T19:28:50.546Z,4
2017-07-02T19:29:51.957Z,4
2017-07-02T19:30:53.364Z,4
2017-07-02T19:31:54.774Z,4
2017-07-02T19:32:56.185Z,4
2017-07-02T19:33:57.590Z,4
2017-07-02T19:34:58.997Z,4
2017-07-02T19:36:00.405Z,4
2017-07-02T19:37:02.456Z,4
2017-07-02T19:38:03.869Z,4
2017-07-02T19:39:05.285Z,4
2017-07-02T19:40:06.695Z,4
2017-07-02T19:41:08.104Z,4
2017-07-02T19:42:09.517Z,4
2017-07-02T19:43:10.925Z,0
2017-07-02T19:44:12.332Z,0
2017-07-02T19:45:13.741Z,0
2017-07-02T19:46:15.149Z,0
2017-07-02T19:47:16.565Z,0
2017-07-02T19:48:17.972Z,0
2017-07-02T19:49:19.494Z,0
2017-07-02T19:50:20.899Z,0
2017-07-02T19:51:22.316Z,0
2017-07-02T19:52:23.714Z,0
2017-07-02T19:53:25.122Z,0
2017-07-02T19:54:27.486Z,0
2017-07-02T19:55:28.889Z,0
2017-07-02T19:56:30.315Z,0
2017-07-02T19:57:31.714Z,0
2017-07-02T19:58:33.589Z,0
2017-07-02T19:59:34.932Z,0
2017-07-02T20:00:36.339Z,0
2017-07-02T20:01:37.748Z,0
2017-07-02T20:02:39.155Z,0
2017-07-02T20:03:40.569Z,0
2017-07-02T20:04:41.990Z,0
2017-07-02T20:05:43.398Z,0
2017-07-02T20:06:44.810Z,0
2017-07-02T20:07:46.218Z,0
2017-07-02T20:08:47.629Z,0
2017-07-02T20:09:49.034Z,0
2017-07-02T20:10:50.926Z,0
2017-07-02T20:11:52.815Z,0
2017-07-02T20:12:54.221Z,0
2017-07-02T20:13:55.629Z,0
2017-07-02T20:14:57.044Z,0
2017-07-02T20:15:58.455Z,0
2017-07-02T20:16:59.860Z,0
2017-07-02T20:18:01.270Z,0
2017-07-02T20:19:02.677Z,0
2017-07-02T20:20:04.081Z,0
2017-07-02T20:21:05.493Z,0
2017-07-02T20:22:07.493Z,0
2017-07-02T20:23:09.600Z,0
2017-07-02T20:24:11.006Z,0
2017-07-02T20:25:12.411Z,0
2017-07-02T20:26:13.818Z,0
2017-07-02T20:27:15.225Z,0
2017-07-02T20:28:16.632Z,0
2017-07-02T20:29:18.042Z,0
2017-07-02T20:30:19.449Z,0
2017-07-02T20:31:20.855Z,0
2017-07-02T20:32:22.261Z,0
2017-07-02T20:33:23.667Z,0
2017-07-02T20:34:25.073Z,0
2017-07-02T20:35:26.483Z,0
2017-07-02T20:36:28.371Z,0
2017-07-02T20:37:29.845Z,0
2017-07-02T20:38:31.247Z,0
2017-07-02T20:39:32.661Z,0
2017-07-02T20:40:34.069Z,0
2017-07-02T20:41:35.475Z,0
2017-07-02T20:42:36.888Z,0
2017-07-02T20:43:38.298Z,0
2017-07-02T20:44:39.707Z,0
2017-07-02T20:45:41.617Z,0
2017-07-02T20:46:43.022Z,0
2017-07-02T20:47:44.428Z,0
2017-07-02T20:48:45.836Z,0
2017-07-02T20:49:48.002Z,0
2017-07-02T20:50:49.407Z,0
2017-07-02T20:51:50.818Z,0
2017-07-02T20:52:52.223Z,0
2017-07-02T20:53:53.629Z,0
2017-07-02T20:54:55.040Z,0
2017-07-02T20:55:56.446Z,0
2017-07-02T20:56:58.338Z,0
2017-07-02T20:58:00.237Z,0
2017-07-02T20:59:01.648Z,0
2017-07-02T21:00:03.069Z,0
2017-07-02T21:01:04.475Z,0
2017-07-02T21:02:05.882Z,0
2017-07-02T21:03:07.289Z,0
2017-07-02T21:04:08.700Z,0
2017-07-02T21:05:10.109Z,0
2017-07-02T21:06:11.527Z,0
2017-07-02T21:07:12.933Z,0
2017-07-02T21:08:14.770Z,0
2017-07-02T21:09:16.671Z,0
2017-07-02T21:10:18.079Z,0
2017-07-02T21:11:19.486Z,0
2017-07-02T21:12:20.899Z,0
2017-07-02T21:13:22.305Z,0
2017-07-02T21:14:23.715Z,0
2017-07-02T21:15:25.127Z,0
2017-07-02T21:16:26.536Z,0
2017-07-02T21:17:27.965Z,0
2017-07-02T21:18:29.375Z,0
2017-07-02T21:19:30.799Z,0
2017-07-02T21:20:32.705Z,0
2017-07-02T21:21:34.165Z,0
2017-07-02T21:22:35.571Z,0
2017-07-02T21:23:36.983Z,0
2017-07-02T21:24:38.388Z,0
2017-07-02T21:25:39.795Z,0
2017-07-02T21:26:41.210Z,0
2017-07-02T21:27:42.621Z,0
2017-07-02T21:28:44.029Z,0
2017-07-02T21:29:45.438Z,0
2017-07-02T21:30:47.900Z,0
2017-07-02T21:31:49.320Z,0
2017-07-02T21:32:50.726Z,0
2017-07-02T21:33:52.138Z,0
2017-07-02T21:34:53.562Z,0
2017-07-02T21:35:55.008Z,0
2017-07-02T21:36:56.374Z,0
2017-07-02T21:37:57.780Z,0
2017-07-02T21:38:59.192Z,0
2017-07-02T21:40:00.603Z,0
2017-07-02T21:41:02.011Z,0
2017-07-02T21:42:03.925Z,0
2017-07-02T21:43:05.824Z,0
2017-07-02T21:44:07.230Z,0
2017-07-02T21:45:08.633Z,0
2017-07-02T21:46:10.044Z,0
2017-07-02T21:47:11.454Z,0
2017-07-02T21:48:12.887Z,0
2017-07-02T21:49:14.276Z,0
2017-07-02T21:50:15.681Z,0
2017-07-02T21:51:17.091Z,0
2017-07-02T21:52:18.500Z,0
2017-07-02T21:53:19.904Z,0
2017-07-02T21:54:22.177Z,0
2017-07-02T21:55:23.586Z,0
2017-07-02T21:56:24.998Z,0
2017-07-02T21:57:26.402Z,0
2017-07-02T21:58:27.809Z,0
2017-07-02T21:59:29.215Z,0
2017-07-02T22:00:30.626Z,0
2017-07-02T22:01:32.034Z,0
2017-07-02T22:02:33.444Z,0
2017-07-02T22:03:34.856Z,0
2017-07-02T22:04:36.754Z,0
2017-07-02T22:05:38.198Z,0
2017-07-02T22:06:39.621Z,0
2017-07-02T22:07:41.029Z,0
2017-07-02T22:08:42.438Z,0
2017-07-02T22:09:43.847Z,0
2017-07-02T22:10:45.258Z,0
2017-07-02T22:11:46.662Z,0
2017-07-02T22:12:48.069Z,0
2017-07-02T22:13:49.473Z,0
2017-07-02T22:14:50.885Z,0
2017-07-02T22:15:52.783Z,0
2017-07-02T22:16:54.674Z,0
2017-07-02T22:17:56.084Z,0
2017-07-02T22:18:57.490Z,0
2017-07-02T22:19:58.898Z,0
2017-07-02T22:21:00.310Z,0
2017-07-02T22:22:01.712Z,0
2017-07-02T22:23:03.121Z,0
2017-07-02T22:24:04.544Z,0
2017-07-02T22:25:06.532Z,0
2017-07-02T22:26:07.942Z,0
2017-07-02T22:27:09.362Z,0
2017-07-02T22:28:11.280Z,0
2017-07-02T22:29:13.180Z,0
2017-07-02T22:30:14.591Z,0
2017-07-02T22:31:15.997Z,0
2017-07-02T22:32:17.406Z,0
2017-07-02T22:33:18.813Z,0
2017-07-02T22:34:20.222Z,0
2017-07-02T22:35:21.630Z,0
2017-07-02T22:36:23.045Z,0
2017-07-02T22:37:24.459Z,0
2017-07-02T22:38:25.866Z,0
2017-07-02T22:39:27.284Z,0
2017-07-02T22:40:29.195Z,0
2017-07-02T22:41:30.600Z,0
2017-07-02T22:42:32.009Z,0
2017-07-02T22:43:34.025Z,0
2017-07-02T22:44:35.433Z,0
2017-07-02T22:45:36.842Z,0
2017-07-02T22:46:38.250Z,0
2017-07-02T22:47:39.657Z,0
2017-07-02T22:48:41.062Z,0
2017-07-02T22:49:42.520Z,0
2017-07-02T22:50:43.928Z,0
2017-07-02T22:51:45.335Z,0
2017-07-02T22:52:46.744Z,0
2017-07-02T22:53:48.156Z,0
2017-07-02T22:54:49.561Z,0
2017-07-02T22:55:50.966Z,0
2017-07-02T22:56:52.374Z,0
2017-07-02T22:57:53.782Z,0
2017-07-02T22:58:55.192Z,0
2017-07-02T22:59:56.599Z,0
2017-07-02T23:00:58.008Z,0
2017-07-02T23:01:59.414Z,0
2017-07-02T23:03:01.324Z,0
2017-07-02T23:04:02.733Z,0
2017-07-02T23:05:04.138Z,0
2017-07-02T23:06:05.547Z,0
2017-07-02T23:07:06.956Z,0
2017-07-02T23:08:08.364Z,0
2017-07-02T23:09:09.770Z,0
2017-07-02T23:10:11.178Z,0
2017-07-02T23:11:12.586Z,0
2017-07-02T23:12:13.994Z,0
2017-07-02T23:13:15.402Z,0
2017-07-02T23:14:16.807Z,0
2017-07-02T23:15:18.698Z,0
2017-07-02T23:16:20.102Z,0
2017-07-02T23:17:21.509Z,0
2017-07-02T23:18:22.914Z,0
2017-07-02T23:19:24.322Z,0
2017-07-02T23:20:25.730Z,0
2017-07-02T23:21:27.138Z,0
2017-07-02T23:22:28.550Z,0
2017-07-02T23:23:29.954Z,0
2017-07-02T23:24:31.370Z,0
2017-07-02T23:25:32.766Z,0
2017-07-02T23:26:34.173Z,0
2017-07-02T23:27:36.062Z,0
2017-07-02T23:28:37.474Z,0
2017-07-02T23:29:38.882Z,0
2017-07-02T23:30:40.290Z,0
2017-07-02T23:31:41.701Z,0
2017-07-02T23:32:43.107Z,0
2017-07-02T23:33:44.529Z,0
2017-07-02T23:34:45.943Z,0
2017-07-02T23:35:47.352Z,0
2017-07-02T23:36:48.765Z,0
2017-07-02T23:37:50.653Z,0
2017-07-02T23:38:52.061Z,0
2017-07-02T23:39:53.465Z,0
2017-07-02T23:40:54.874Z,0
2017-07-02T23:41:56.280Z,0
2017-07-02T23:42:57.691Z,0
2017-07-02T23:43:59.102Z,0
2017-07-02T23:45:00.505Z,0
2017-07-02T23:46:01.908Z,0
2017-07-02T23:47:03.320Z,0
2017-07-02T23:48:04.724Z,0
2017-07-02T23:49:06.625Z,0
2017-07-02T23:50:08.525Z,0
2017-07-02T23:51:09.934Z,0
2017-07-02T23:52:11.339Z,0
2017-07-02T23:53:12.745Z,0
2017-07-02T23:54:14.151Z,0
2017-07-02T23:55:15.557Z,0
2017-07-02T23:56:16.965Z,0
2017-07-02T23:57:18.375Z,0
2017-07-02T23:58:19.785Z,0
2017-07-02T23:59:21.241Z,0
